Time;durP1;ratioP1;P1;durP2;ratioP2;P2;SDS_P1;SDS_P2;PMS_P1;PMS_P2;Temp;Humidity;BMP_temperature;BMP_pressure;BME280_temperature;BME280_humidity;BME280_pressure;Samples;Min_cycle;Max_cycle;Signal;HPM_P1;HPM_P2
2023/12/10 00:01:53;;;;;;;28.37;14.93;;;4.80;99.90;;;4.48;62.97;94918.91;5056908;28;20476;-60
2023/12/10 00:04:21;;;;;;;23.90;16.10;;;4.80;99.90;;;4.45;63.29;94926.09;5061311;28;20451;-61
2023/12/10 00:06:48;;;;;;;24.83;15.30;;;4.70;99.90;;;4.42;63.35;94919.31;5062790;28;20473;-59
2023/12/10 00:09:15;;;;;;;22.80;14.67;;;4.70;99.90;;;4.40;63.53;94925.53;5056408;28;20448;-60
2023/12/10 00:11:43;;;;;;;23.80;15.90;;;4.60;99.90;;;4.36;63.24;94930.13;5061396;28;20479;-61
2023/12/10 00:14:10;;;;;;;28.87;16.10;;;4.60;99.90;;;4.33;63.45;94929.50;5062468;28;20486;-60
2023/12/10 00:16:39;;;;;;;25.30;16.10;;;4.60;99.90;;;4.32;63.23;94928.66;5056474;28;20471;-60
2023/12/10 00:19:06;;;;;;;25.63;17.03;;;4.60;99.90;;;4.32;63.44;94936.47;5060841;28;20989;-59
2023/12/10 00:21:34;;;;;;;31.03;15.17;;;4.60;99.90;;;4.34;63.48;94937.22;5062390;28;20443;-61
2023/12/10 00:24:02;;;;;;;23.80;13.90;;;4.60;99.90;;;4.35;63.53;94922.41;5059964;28;20466;-61
2023/12/10 00:26:29;;;;;;;19.30;13.60;;;4.60;99.90;;;4.37;63.54;94931.81;5060714;28;20450;-59
2023/12/10 00:28:56;;;;;;;26.17;14.13;;;4.60;99.90;;;4.40;63.64;94930.75;5062398;28;20975;-59
2023/12/10 00:31:24;;;;;;;24.17;14.57;;;4.60;99.90;;;4.41;63.51;94930.66;5060247;28;20448;-62
2023/12/10 00:33:53;;;;;;;22.53;14.03;;;4.60;99.90;;;4.43;63.45;94931.41;5060966;28;20470;-59
2023/12/10 00:36:20;;;;;;;18.90;14.00;;;4.70;99.90;;;4.44;62.68;94925.25;5062353;28;20533;-59
2023/12/10 00:38:47;;;;;;;18.77;12.20;;;4.70;99.90;;;4.46;63.20;94919.94;5059765;28;20444;-62
2023/12/10 00:41:15;;;;;;;18.77;12.67;;;4.70;99.90;;;4.41;63.08;94909.81;5060213;28;20925;-60
2023/12/10 00:43:43;;;;;;;17.83;11.40;;;4.70;99.90;;;4.39;62.95;94913.47;5062287;28;20474;-59
2023/12/10 00:46:11;;;;;;;16.40;12.00;;;4.60;99.90;;;4.35;62.91;94914.59;5060301;28;20447;-62
2023/12/10 00:48:38;;;;;;;18.50;11.70;;;4.60;99.90;;;4.35;63.16;94912.84;5059984;28;20463;-62
2023/12/10 00:51:07;;;;;;;16.63;11.80;;;4.60;99.90;;;4.35;63.28;94909.41;5061843;28;20455;-61
2023/12/10 00:53:34;;;;;;;19.10;12.80;;;4.60;99.90;;;4.36;63.08;94918.91;5059542;28;20984;-60
2023/12/10 00:56:02;;;;;;;19.60;12.60;;;4.60;99.90;;;4.34;63.05;94910.31;5059236;28;20494;-59
2023/12/10 00:58:29;;;;;;;25.33;12.40;;;4.60;99.90;;;4.32;63.16;94913.03;5061421;28;20489;-58
2023/12/10 01:00:56;;;;;;;22.90;12.63;;;4.60;99.90;;;4.34;63.08;94918.13;5059896;28;20452;-59
2023/12/10 01:03:24;;;;;;;22.30;12.50;;;4.60;99.90;;;4.33;62.81;94913.88;5059761;28;20468;-60
2023/12/10 01:05:51;;;;;;;21.43;14.30;;;4.60;99.90;;;4.33;63.21;94911.28;5061809;28;21029;-61
2023/12/10 01:08:20;;;;;;;20.70;13.67;;;4.60;99.90;;;4.35;63.30;94906.81;5059794;28;20576;-58
2023/12/10 01:10:48;;;;;;;20.13;13.77;;;4.60;99.90;;;4.39;62.97;94905.66;5058988;28;20447;-60
2023/12/10 01:13:15;;;;;;;25.67;13.20;;;4.60;99.90;;;4.39;63.21;94900.47;5061827;28;20456;-59
2023/12/10 01:15:42;;;;;;;23.80;13.83;;;4.60;99.90;;;4.39;63.16;94898.69;5059830;28;20491;-59
2023/12/10 01:18:10;;;;;;;23.40;13.90;;;4.60;99.90;;;4.39;62.98;94897.84;5059015;28;20471;-58
2023/12/10 01:20:37;;;;;;;18.27;13.03;;;4.60;99.90;;;4.34;63.13;94885.16;5061319;28;20576;-58
2023/12/10 01:23:05;;;;;;;23.00;14.93;;;4.60;99.90;;;4.33;63.27;94885.25;5059376;28;21026;-60
2023/12/10 01:25:34;;;;;;;23.53;15.00;;;4.60;99.90;;;4.33;63.71;94882.66;5058796;28;20455;-58
2023/12/10 01:28:02;;;;;;;20.83;14.07;;;4.60;99.90;;;4.31;63.43;94873.16;5054389;28;20578;-61
2023/12/10 01:30:30;;;;;;;22.40;15.80;;;4.60;99.90;;;4.33;63.12;94872.22;5059772;28;20485;-61
2023/12/10 01:32:58;;;;;;;21.97;15.43;;;4.60;99.90;;;4.36;63.21;94872.84;5060887;28;21022;-60
2023/12/10 01:35:25;;;;;;;27.00;15.67;;;4.60;99.90;;;4.39;63.61;94866.63;5054908;28;20495;-62
2023/12/10 01:37:53;;;;;;;26.53;16.33;;;4.60;99.90;;;4.41;62.97;94864.72;5059497;28;20870;-59
2023/12/10 01:40:21;;;;;;;29.53;16.70;;;4.60;99.90;;;4.44;63.46;94869.72;5060497;28;20967;-60
2023/12/10 01:42:50;;;;;;;27.27;16.97;;;4.70;99.90;;;4.47;63.17;94874.75;5054886;28;20475;-60
2023/12/10 01:45:18;;;;;;;28.53;16.20;;;4.70;99.90;;;4.50;63.51;94874.53;5058948;28;20465;-61
2023/12/10 01:47:47;;;;;;;23.83;16.80;;;4.70;99.90;;;4.53;63.68;94869.13;5060783;28;20470;-60
2023/12/10 01:50:15;;;;;;;29.50;17.50;;;4.80;99.90;;;4.54;63.33;94881.22;5058833;28;20462;-60
2023/12/10 01:52:43;;;;;;;29.50;17.60;;;4.80;99.90;;;4.56;63.50;94884.53;5058465;28;21214;-59
2023/12/10 01:55:11;;;;;;;30.43;16.70;;;4.80;99.90;;;4.57;63.44;94885.38;5060618;28;20497;-59
2023/12/10 01:57:39;;;;;;;24.70;16.43;;;4.80;99.90;;;4.58;63.49;94887.88;5059121;28;20466;-61
2023/12/10 02:00:09;;;;;;;25.53;15.60;;;4.80;99.90;;;4.59;63.53;94879.13;5058538;28;20494;-62
2023/12/10 02:02:37;;;;;;;27.47;14.07;;;4.80;99.90;;;4.61;63.66;94882.44;5054684;28;20464;-58
2023/12/10 02:05:06;;;;;;;30.60;16.37;;;4.90;99.90;;;4.61;63.46;94872.03;5058110;28;21025;-59
2023/12/10 02:07:33;;;;;;;26.30;15.50;;;4.90;99.90;;;4.59;63.59;94873.91;5060923;28;20471;-61
2023/12/10 02:10:01;;;;;;;22.00;15.17;;;4.80;99.90;;;4.59;63.41;94871.31;5058342;28;20452;-61
2023/12/10 02:12:29;;;;;;;22.03;15.00;;;4.80;99.90;;;4.58;63.29;94872.22;5058987;28;20557;-59
2023/12/10 02:14:56;;;;;;;26.67;16.47;;;4.80;99.90;;;4.58;63.48;94872.22;5060369;28;20521;-64
2023/12/10 02:17:25;;;;;;;24.37;16.13;;;4.80;99.90;;;4.59;63.58;94873.09;5058879;28;20464;-59
2023/12/10 02:19:52;;;;;;;18.43;13.33;;;4.80;99.90;;;4.61;63.83;94866.81;5059321;28;20458;-61
2023/12/10 02:22:22;;;;;;;26.40;16.40;;;4.90;99.90;;;4.63;63.71;94870.19;5060259;28;20463;-59
2023/12/10 02:24:51;;;;;;;21.07;14.80;;;4.90;99.90;;;4.64;63.18;94860.56;5058531;28;20455;-61
2023/12/10 02:27:20;;;;;;;20.90;14.60;;;4.90;99.90;;;4.64;63.47;94860.56;5057682;28;20471;-60
2023/12/10 02:29:48;;;;;;;26.00;16.40;;;4.90;99.90;;;4.64;63.75;94856.19;5054225;28;20452;-66
2023/12/10 02:32:16;;;;;;;23.10;16.10;;;4.90;99.90;;;4.65;63.31;94862.25;5058763;28;20478;-60
2023/12/10 02:34:43;;;;;;;30.80;17.60;;;4.90;99.90;;;4.63;63.65;94857.16;5060166;28;20489;-60
2023/12/10 02:37:11;;;;;;;26.60;16.83;;;4.90;99.90;;;4.64;63.69;94850.16;5057650;28;20468;-59
2023/12/10 02:39:38;;;;;;;28.23;16.37;;;4.90;99.90;;;4.66;63.24;94845.66;5058539;28;20457;-59
2023/12/10 02:42:06;;;;;;;42.13;17.10;;;4.90;99.90;;;4.65;63.19;94842.25;5060367;28;20482;-60
2023/12/10 02:44:35;;;;;;;25.70;17.10;;;4.90;99.90;;;4.65;63.32;94834.44;5054688;28;20867;-61
2023/12/10 02:47:02;;;;;;;26.23;17.73;;;4.90;99.90;;;4.63;62.94;94838.91;5058618;28;20460;-59
2023/12/10 02:49:29;;;;;;;25.73;17.23;;;4.90;99.90;;;4.58;62.88;94843.59;5060259;28;20466;-61
2023/12/10 02:51:57;;;;;;;28.17;17.70;;;4.90;99.90;;;4.53;63.08;94848.28;5057715;28;20499;-60
2023/12/10 02:54:24;;;;;;;26.00;16.70;;;4.80;99.90;;;4.46;63.46;94854.84;5058312;28;21353;-62
2023/12/10 02:56:51;;;;;;;26.43;17.83;;;4.70;99.90;;;4.43;63.35;94852.44;5059773;28;20505;-59
2023/12/10 02:59:19;;;;;;;25.60;16.17;;;4.70;99.90;;;4.45;63.64;94846.19;5057609;28;20460;-60
2023/12/10 03:01:48;;;;;;;27.23;16.17;;;4.70;99.90;;;4.43;63.30;94847.22;5058009;28;20485;-61
2023/12/10 03:04:15;;;;;;;22.83;15.90;;;4.70;99.90;;;4.40;63.39;94843.06;5060360;28;20972;-60
2023/12/10 03:06:42;;;;;;;24.07;15.30;;;4.70;99.90;;;4.37;63.46;94832.00;5057875;28;20575;-61
2023/12/10 03:09:10;;;;;;;23.80;16.07;;;4.60;99.90;;;4.33;63.45;94846.19;5058080;28;20841;-59
2023/12/10 03:11:37;;;;;;;21.27;15.33;;;4.60;99.90;;;4.26;63.44;94830.97;5060071;28;20454;-61
2023/12/10 03:14:05;;;;;;;24.90;15.83;;;4.50;99.90;;;4.20;63.26;94830.53;5057565;28;20536;-60
2023/12/10 03:16:32;;;;;;;23.67;14.47;;;4.50;99.90;;;4.17;63.62;94833.34;5061144;28;20495;-59
2023/12/10 03:19:01;;;;;;;23.57;15.40;;;4.50;99.90;;;4.13;63.61;94835.31;5063770;28;20459;-60
2023/12/10 03:21:28;;;;;;;25.27;15.67;;;4.40;99.90;;;4.09;63.76;94833.84;5061982;28;20444;-60
2023/12/10 03:23:55;;;;;;;23.13;15.60;;;4.40;99.90;;;4.07;63.90;94838.34;5061899;28;20448;-60
2023/12/10 03:26:23;;;;;;;27.70;16.53;;;4.30;99.90;;;4.08;63.86;94843.44;5063491;28;20997;-61
2023/12/10 03:28:50;;;;;;;27.90;16.53;;;4.30;99.90;;;4.10;63.71;94840.72;5061283;28;20932;-58
2023/12/10 03:31:18;;;;;;;28.80;16.60;;;4.30;99.90;;;4.05;63.85;94848.00;5061730;28;20451;-60
2023/12/10 03:33:45;;;;;;;26.03;16.63;;;4.30;99.90;;;4.02;63.87;94853.41;5063500;28;20623;-59
2023/12/10 03:36:15;;;;;;;25.73;16.93;;;4.30;99.90;;;3.97;63.98;94848.53;5061383;28;20503;-60
2023/12/10 03:38:42;;;;;;;26.30;17.23;;;4.30;99.90;;;3.97;63.90;94847.66;5061490;28;20467;-60
2023/12/10 03:41:10;;;;;;;23.50;15.80;;;4.20;99.90;;;3.93;64.15;94847.91;5063533;28;20461;-61
2023/12/10 03:43:37;;;;;;;22.60;14.77;;;4.20;99.90;;;3.87;64.07;94837.88;5061279;28;20467;-60
2023/12/10 03:46:05;;;;;;;25.10;15.80;;;4.10;99.90;;;3.86;64.62;94843.19;5060586;28;20448;-62
2023/12/10 03:48:33;;;;;;;30.53;17.43;;;4.10;99.90;;;3.87;64.30;94850.03;5063026;28;20486;-61
2023/12/10 03:51:00;;;;;;;26.97;17.70;;;4.10;99.90;;;3.92;64.60;94846.22;5061376;28;20464;-62
2023/12/10 03:53:29;;;;;;;33.10;15.50;;;4.10;99.90;;;3.98;64.43;94839.75;5060895;28;20479;-61
2023/12/10 03:55:56;;;;;;;28.60;16.23;;;4.20;99.90;;;4.00;64.37;94845.72;5056339;28;20502;-61
2023/12/10 03:58:23;;;;;;;26.13;16.60;;;4.30;99.90;;;3.99;63.94;94844.03;5061723;28;20557;-60
2023/12/10 04:00:51;;;;;;;27.50;17.20;;;4.30;99.90;;;4.01;64.30;94855.16;5062551;28;20463;-59
2023/12/10 04:03:18;;;;;;;24.83;17.00;;;4.20;99.90;;;4.05;64.29;94851.44;5056053;28;20478;-59
2023/12/10 04:05:46;;;;;;;27.03;16.00;;;4.30;99.90;;;4.09;64.40;94846.84;5062354;28;20451;-59
2023/12/10 04:08:13;;;;;;;20.27;13.90;;;4.30;99.90;;;4.10;64.01;94851.13;5062573;28;20474;-61
2023/12/10 04:10:42;;;;;;;23.37;14.53;;;4.30;99.90;;;4.08;63.79;94847.81;5059630;28;20467;-61
2023/12/10 04:13:09;;;;;;;24.30;14.73;;;4.30;99.90;;;4.07;64.01;94851.34;5061378;28;20573;-59
2023/12/10 04:15:37;;;;;;;18.30;12.67;;;4.30;99.90;;;4.08;63.89;94847.81;5062537;28;20497;-59
2023/12/10 04:18:05;;;;;;;17.93;13.43;;;4.30;99.90;;;4.09;64.05;94846.84;5056264;28;20472;-60
2023/12/10 04:20:32;;;;;;;21.03;13.77;;;4.30;99.90;;;4.10;63.53;94851.13;5061001;28;20963;-61
2023/12/10 04:23:00;;;;;;;22.20;13.20;;;4.30;99.90;;;4.11;63.81;94853.66;5062254;28;20501;-61
2023/12/10 04:25:27;;;;;;;27.00;15.90;;;4.30;99.90;;;4.14;63.48;94850.00;5056448;28;20467;-60
2023/12/10 04:27:56;;;;;;;20.93;14.70;;;4.40;99.90;;;4.16;63.54;94850.75;5060118;28;20963;-60
2023/12/10 04:30:24;;;;;;;24.80;15.60;;;4.40;99.90;;;4.16;63.58;94850.75;5062049;28;20459;-63
2023/12/10 04:32:51;;;;;;;24.67;15.50;;;4.40;99.90;;;4.17;63.32;94851.56;5059636;28;20491;-60
2023/12/10 04:35:19;;;;;;;19.10;14.17;;;4.40;99.90;;;4.12;63.46;94846.66;5060090;28;20451;-60
2023/12/10 04:37:46;;;;;;;21.70;15.70;;;4.40;99.90;;;4.09;63.74;94846.84;5061965;28;20559;-62
2023/12/10 04:40:14;;;;;;;23.73;15.67;;;4.40;99.90;;;4.10;63.78;94848.53;5059606;28;21074;-60
2023/12/10 04:42:41;;;;;;;21.20;14.60;;;4.40;99.90;;;4.10;63.97;94838.94;5060178;28;20472;-61
2023/12/10 04:45:11;;;;;;;21.43;14.97;;;4.40;99.90;;;4.10;63.43;94845.94;5061915;28;20473;-60
2023/12/10 04:47:38;;;;;;;22.57;14.90;;;4.30;99.90;;;4.07;63.91;94844.34;5059704;28;20479;-61
2023/12/10 04:50:08;;;;;;;25.80;16.07;;;4.30;99.90;;;4.07;63.92;94839.16;5059824;28;20467;-59
2023/12/10 04:52:35;;;;;;;23.27;15.30;;;4.30;99.90;;;4.09;63.97;94844.25;5062954;28;20479;-60
2023/12/10 04:55:03;;;;;;;24.03;15.70;;;4.30;99.90;;;4.11;63.76;94847.63;5060992;28;20771;-60
2023/12/10 04:57:30;;;;;;;24.57;16.07;;;4.30;99.90;;;4.10;63.93;94851.97;5059403;28;20517;-60
2023/12/10 04:59:57;;;;;;;26.33;16.40;;;4.30;99.90;;;4.11;64.47;94843.22;5061574;28;20505;-58
2023/12/10 05:02:26;;;;;;;27.33;16.70;;;4.40;99.90;;;4.13;63.99;94840.53;5058373;28;20468;-60
2023/12/10 05:04:54;;;;;;;26.53;17.20;;;4.40;99.90;;;4.15;63.80;94838.66;5058181;28;21020;-60
2023/12/10 05:07:21;;;;;;;25.00;17.30;;;4.40;99.90;;;4.16;63.76;94835.13;5055020;28;20475;-61
2023/12/10 05:09:48;;;;;;;30.40;17.53;;;4.40;99.90;;;4.16;63.93;94840.31;5060503;28;20458;-61
2023/12/10 05:12:16;;;;;;;27.67;16.23;;;4.40;99.90;;;4.13;63.74;94841.34;5060997;28;20483;-61
2023/12/10 05:14:43;;;;;;;29.07;16.80;;;4.40;99.90;;;4.07;63.47;94841.75;5058589;28;20444;-61
2023/12/10 05:17:10;;;;;;;28.30;16.83;;;4.40;99.90;;;3.99;64.02;94849.25;5060427;28;20499;-61
2023/12/10 05:19:39;;;;;;;28.60;19.00;;;4.30;99.90;;;3.93;64.17;94850.50;5061109;28;20446;-60
2023/12/10 05:22:07;;;;;;;28.00;17.07;;;4.20;99.90;;;3.85;64.33;94859.72;5055007;28;20475;-62
2023/12/10 05:24:34;;;;;;;25.97;16.30;;;4.20;99.90;;;3.79;64.89;94858.34;5059786;28;20975;-62
2023/12/10 05:27:02;;;;;;;30.20;17.30;;;4.10;99.90;;;3.74;64.65;94856.03;5061083;28;20471;-59
2023/12/10 05:29:29;;;;;;;29.20;17.50;;;4.00;99.90;;;3.73;64.93;94858.75;5054696;28;20450;-61
2023/12/10 05:31:56;;;;;;;27.57;15.70;;;4.00;99.90;;;3.73;64.94;94853.53;5059423;28;20494;-60
2023/12/10 05:34:24;;;;;;;30.73;17.70;;;4.00;99.90;;;3.76;65.04;94859.41;5060318;28;20451;-60
2023/12/10 05:36:52;;;;;;;29.33;16.33;;;4.00;99.90;;;3.79;65.07;94860.13;5061187;28;20495;-61
2023/12/10 05:39:20;;;;;;;40.37;18.33;;;4.00;99.90;;;3.81;65.21;94860.84;5059691;28;20960;-59
2023/12/10 05:41:47;;;;;;;24.63;16.80;;;4.10;99.90;;;3.79;64.96;94850.53;5058248;28;20464;-61
2023/12/10 05:44:15;;;;;;;29.13;17.10;;;4.10;99.90;;;3.79;65.18;94849.72;5054946;28;20451;-63
2023/12/10 05:46:42;;;;;;;28.97;17.30;;;4.00;99.90;;;3.75;64.98;94857.72;5059440;28;20475;-61
2023/12/10 05:49:09;;;;;;;32.53;16.60;;;4.00;99.90;;;3.73;65.14;94848.34;5060754;28;20453;-60
2023/12/10 05:51:37;;;;;;;29.50;17.30;;;4.00;99.90;;;3.75;65.17;94851.69;5054777;28;20456;-60
2023/12/10 05:54:06;;;;;;;26.40;16.70;;;4.00;99.90;;;3.75;65.15;94847.31;5059383;28;20477;-60
2023/12/10 05:56:33;;;;;;;25.37;17.23;;;4.00;99.90;;;3.76;65.67;94835.13;5060796;28;20526;-60
2023/12/10 05:59:02;;;;;;;28.97;16.80;;;4.00;99.90;;;3.74;65.25;94852.63;5056947;28;20454;-62
2023/12/10 06:01:29;;;;;;;30.83;16.90;;;4.00;99.90;;;3.72;65.36;94842.31;5059295;28;20450;-60
2023/12/10 06:03:57;;;;;;;28.10;17.80;;;4.00;99.90;;;3.72;65.29;94851.88;5057559;28;20986;-62
2023/12/10 06:06:24;;;;;;;29.20;17.83;;;4.00;99.90;;;3.75;65.30;94841.28;5060008;28;20492;-61
2023/12/10 06:08:52;;;;;;;31.57;17.70;;;4.00;99.90;;;3.81;65.35;94851.28;5059951;28;20450;-60
2023/12/10 06:11:21;;;;;;;32.30;18.90;;;4.10;99.90;;;3.90;65.50;94840.28;5057590;28;20964;-62
2023/12/10 06:13:49;;;;;;;29.57;17.33;;;4.20;99.90;;;4.01;65.19;94846.53;5059747;28;20505;-60
2023/12/10 06:16:16;;;;;;;29.70;16.60;;;4.30;99.90;;;4.09;65.14;94846.84;5060101;28;20487;-62
2023/12/10 06:18:43;;;;;;;26.53;16.83;;;4.40;99.90;;;4.14;65.07;94852.63;5057438;28;20471;-60
2023/12/10 06:21:11;;;;;;;29.53;17.90;;;4.40;99.90;;;4.17;64.97;94856.75;5059660;28;20459;-60
2023/12/10 06:23:38;;;;;;;27.83;17.23;;;4.40;99.90;;;4.19;65.01;94865.31;5060088;28;20477;-60
2023/12/10 06:26:06;;;;;;;33.27;16.43;;;4.50;99.90;;;4.21;64.82;94861.66;5057969;28;20471;-60
2023/12/10 06:28:35;;;;;;;24.93;16.87;;;4.50;99.90;;;4.22;64.82;94857.31;5059768;28;20870;-60
2023/12/10 06:31:03;;;;;;;25.77;16.23;;;4.50;99.90;;;4.25;64.80;94864.94;5059850;28;20913;-60
2023/12/10 06:33:31;;;;;;;28.27;15.93;;;4.50;99.90;;;4.26;64.66;94857.00;5057147;28;20468;-61
2023/12/10 06:35:58;;;;;;;34.30;19.30;;;4.50;99.90;;;4.26;64.43;94857.00;5059312;28;20936;-62
2023/12/10 06:38:26;;;;;;;40.53;20.60;;;4.50;99.90;;;4.24;64.50;94866.69;5060115;28;21058;-61
2023/12/10 06:40:53;;;;;;;31.77;20.53;;;4.50;99.90;;;4.22;64.56;94873.75;5058087;28;20458;-61
2023/12/10 06:43:21;;;;;;;32.20;21.37;;;4.50;99.90;;;4.21;64.71;94868.66;5059384;28;20485;-62
2023/12/10 06:45:51;;;;;;;35.63;21.77;;;4.50;99.90;;;4.20;64.72;94870.44;5057096;28;20451;-60
2023/12/10 06:48:18;;;;;;;36.90;20.83;;;4.50;99.90;;;4.22;64.67;94875.53;5054457;28;20464;-60
2023/12/10 06:50:48;;;;;;;35.13;19.60;;;4.50;99.90;;;4.27;64.98;94876.88;5060784;28;20458;-60
2023/12/10 06:53:15;;;;;;;36.83;21.90;;;4.50;99.90;;;4.52;64.97;94888.28;5064580;28;20536;-60
2023/12/10 06:55:44;;;;;;;34.27;20.43;;;4.70;99.90;;;4.98;64.84;94879.94;5062365;28;20471;-61
2023/12/10 06:58:12;;;;;;;33.03;18.80;;;5.10;99.90;;;5.41;63.72;94883.09;5062278;28;20499;-62
2023/12/10 07:00:40;;;;;;;29.57;19.00;;;5.60;99.90;;;5.81;63.05;94885.50;5064786;28;20446;-60
2023/12/10 07:03:09;;;;;;;29.50;18.50;;;6.00;99.90;;;6.18;62.15;94877.63;5061565;28;20468;-62
2023/12/10 07:05:37;;;;;;;30.00;18.50;;;6.40;99.90;;;6.50;61.68;94880.47;5061795;28;20476;-62
2023/12/10 07:08:05;;;;;;;30.00;19.30;;;6.70;99.80;;;6.82;60.74;94878.03;5063683;28;20481;-62
2023/12/10 07:10:33;;;;;;;33.10;20.03;;;7.10;99.30;;;7.28;60.82;94881.53;5063162;28;20493;-61
2023/12/10 07:13:00;;;;;;;31.87;20.77;;;7.50;99.10;;;7.79;59.68;94880.16;5061146;28;20897;-60
2023/12/10 07:15:28;;;;;;;37.30;21.57;;;8.00;98.50;;;8.08;58.46;94880.41;5057394;28;20451;-61
2023/12/10 07:17:55;;;;;;;56.80;24.07;;;8.40;97.30;;;8.15;57.36;94867.66;5062565;28;20490;-61
2023/12/10 07:20:24;;;;;;;38.43;22.60;;;8.60;96.20;;;7.97;57.17;94877.00;5063662;28;20887;-61
2023/12/10 07:22:52;;;;;;;39.87;24.27;;;8.40;95.40;;;7.79;57.01;94882.78;5063178;28;20478;-61
2023/12/10 07:25:20;;;;;;;35.57;21.73;;;8.20;95.20;;;7.60;57.08;94877.31;5066879;28;20450;-61
2023/12/10 07:27:48;;;;;;;36.23;22.43;;;8.00;95.30;;;7.49;57.42;94881.59;5060702;28;21030;-61
2023/12/10 07:30:16;;;;;;;38.97;21.80;;;7.80;95.40;;;7.44;58.09;94875.91;5062910;28;21013;-61
2023/12/10 07:32:44;;;;;;;33.63;20.27;;;7.70;95.90;;;7.38;58.91;94881.63;5061805;28;20481;-61
2023/12/10 07:35:11;;;;;;;40.23;22.30;;;7.70;97.00;;;7.27;58.70;94884.25;5060378;28;20461;-61
2023/12/10 07:37:40;;;;;;;31.10;20.67;;;7.60;96.30;;;7.12;58.40;94884.47;5062494;28;20547;-61
2023/12/10 07:40:11;;;;;;;35.30;20.50;;;7.40;96.20;;;6.96;58.50;94891.84;5062630;28;20463;-61
2023/12/10 07:42:39;;;;;;;37.33;20.97;;;7.20;96.40;;;6.85;58.60;94889.19;5059625;28;20619;-61
2023/12/10 07:45:07;;;;;;;38.33;21.57;;;7.10;96.70;;;6.77;58.90;94888.03;5061774;28;20544;-61
2023/12/10 07:47:35;;;;;;;34.87;20.70;;;7.00;96.70;;;6.69;59.50;94895.59;5060199;28;20468;-62
2023/12/10 07:50:02;;;;;;;36.83;21.07;;;6.90;96.90;;;6.61;59.30;94898.78;5057659;28;20440;-61
2023/12/10 07:52:30;;;;;;;33.47;21.20;;;6.90;97.10;;;6.59;59.14;94894.63;5062191;28;20467;-62
2023/12/10 07:54:58;;;;;;;35.00;20.37;;;6.80;97.10;;;6.79;59.35;94886.09;5063260;28;20534;-61
2023/12/10 07:57:26;;;;;;;36.03;20.10;;;6.90;97.60;;;7.21;59.62;94895.19;5062929;28;20684;-61
2023/12/10 07:59:54;;;;;;;43.73;19.67;;;7.20;97.80;;;7.75;58.40;94897.03;5062011;28;20450;-61
2023/12/10 08:02:21;;;;;;;42.30;22.00;;;7.60;97.20;;;8.33;56.95;94893.31;5057829;28;21038;-59
2023/12/10 08:04:48;;;;;;;34.57;23.10;;;8.20;96.40;;;8.77;55.64;94901.94;5062029;28;20447;-62
2023/12/10 08:07:16;;;;;;;35.03;21.90;;;8.70;95.30;;;9.26;55.36;94887.28;5059123;28;20471;-61
2023/12/10 08:09:43;;;;;;;33.90;20.27;;;9.10;94.80;;;9.56;54.83;94901.38;5062662;28;20447;-61
2023/12/10 08:12:12;;;;;;;35.40;21.10;;;9.50;94.20;;;9.83;53.54;94899.94;5060326;28;20476;-59
2023/12/10 08:14:40;;;;;;;34.23;20.80;;;9.80;93.10;;;9.89;53.17;94904.66;5060920;28;20543;-61
2023/12/10 08:17:07;;;;;;;29.63;20.43;;;9.90;92.30;;;9.75;53.25;94902.41;5062617;28;20993;-61
2023/12/10 08:19:35;;;;;;;29.47;20.13;;;9.80;92.00;;;9.43;53.05;94900.75;5060313;28;20975;-61
2023/12/10 08:22:02;;;;;;;33.00;19.27;;;9.60;91.40;;;9.04;53.42;94895.34;5060633;28;20512;-61
2023/12/10 08:24:30;;;;;;;36.40;20.37;;;9.30;91.30;;;8.68;53.66;94907.97;5062576;28;20498;-61
2023/12/10 08:26:58;;;;;;;30.87;20.03;;;8.90;91.30;;;8.36;54.19;94901.72;5060258;28;20530;-59
2023/12/10 08:29:26;;;;;;;34.27;19.97;;;8.70;91.70;;;8.13;55.27;94898.34;5060138;28;20466;-60
2023/12/10 08:31:54;;;;;;;33.83;21.13;;;8.40;92.50;;;7.94;54.68;94906.06;5061584;28;20467;-61
2023/12/10 08:34:21;;;;;;;31.30;20.07;;;8.20;92.40;;;7.74;55.77;94892.75;5060784;28;20456;-60
2023/12/10 08:36:49;;;;;;;28.43;19.70;;;8.00;93.10;;;7.56;56.37;94887.22;5060258;28;20860;-60
2023/12/10 08:39:16;;;;;;;25.53;18.57;;;7.80;93.60;;;7.43;56.10;94883.88;5062682;28;20804;-61
2023/12/10 08:41:44;;;;;;;29.53;20.10;;;7.60;93.60;;;7.29;56.70;94872.69;5060632;28;20475;-59
2023/12/10 08:44:11;;;;;;;36.03;21.50;;;7.50;93.90;;;7.24;57.35;94876.66;5060192;28;20448;-58
2023/12/10 08:46:40;;;;;;;30.50;21.77;;;7.40;94.20;;;7.21;57.04;94879.50;5063209;28;20467;-61
2023/12/10 08:49:08;;;;;;;31.77;20.70;;;7.40;94.50;;;7.18;57.17;94880.56;5061268;28;20447;-62
2023/12/10 08:51:35;;;;;;;34.90;20.07;;;7.40;94.60;;;7.12;57.04;94870.56;5062697;28;20447;-61
2023/12/10 08:54:03;;;;;;;37.03;19.30;;;7.30;94.70;;;7.08;57.61;94875.22;5060684;28;20464;-58
2023/12/10 08:56:30;;;;;;;37.80;20.97;;;7.20;94.80;;;7.03;57.71;94866.88;5060723;28;20538;-58
2023/12/10 08:58:58;;;;;;;38.60;23.43;;;7.20;94.60;;;6.93;57.36;94869.38;5061663;28;20447;-58
2023/12/10 09:01:25;;;;;;;40.03;24.03;;;7.10;95.00;;;6.86;57.87;94865.56;5061945;28;20461;-59
2023/12/10 09:03:54;;;;;;;47.40;26.37;;;7.00;95.30;;;6.82;58.04;94858.91;5059139;28;20456;-60
2023/12/10 09:06:22;;;;;;;38.87;25.20;;;7.00;95.40;;;6.81;58.23;94863.28;5059163;28;20448;-61
2023/12/10 09:08:49;;;;;;;39.53;25.40;;;7.00;95.60;;;6.77;58.15;94851.44;5055727;28;20470;-61
2023/12/10 09:11:17;;;;;;;50.00;26.40;;;7.00;95.80;;;6.75;58.24;94848.06;5060813;28;20493;-59
2023/12/10 09:13:44;;;;;;;41.47;26.60;;;6.90;95.90;;;6.71;58.81;94838.81;5061229;28;20470;-60
2023/12/10 09:16:11;;;;;;;39.10;27.00;;;6.90;96.10;;;6.71;58.79;94843.19;5055462;28;20971;-59
2023/12/10 09:18:39;;;;;;;49.40;29.33;;;6.80;96.20;;;6.71;59.04;94837.97;5059972;28;20843;-60
2023/12/10 09:21:08;;;;;;;48.87;31.13;;;6.80;96.20;;;6.74;59.10;94845.56;5061448;28;20485;-61
2023/12/10 09:23:35;;;;;;;57.37;31.70;;;6.80;96.20;;;6.80;58.37;94840.72;5056880;28;20581;-60
2023/12/10 09:26:03;;;;;;;54.17;30.27;;;6.90;96.30;;;6.86;58.46;94842.03;5060753;28;20471;-59
2023/12/10 09:28:32;;;;;;;62.00;33.00;;;6.90;96.30;;;6.92;58.82;94843.34;5056913;28;20498;-60
2023/12/10 09:30:59;;;;;;;60.77;31.90;;;7.00;96.30;;;7.01;58.54;94847.88;5059947;28;20507;-60
2023/12/10 09:33:27;;;;;;;53.07;29.20;;;7.10;96.40;;;7.12;58.45;94844.41;5059374;28;20493;-61
2023/12/10 09:35:54;;;;;;;54.77;30.37;;;7.20;96.20;;;7.44;58.28;94844.50;5058605;28;20832;-62
2023/12/10 09:38:23;;;;;;;57.40;31.30;;;7.50;96.50;;;8.11;57.31;94832.19;5061394;28;20524;-60
2023/12/10 09:40:50;;;;;;;44.83;26.97;;;8.00;96.20;;;8.96;56.29;94819.91;5060571;28;20458;-60
2023/12/10 09:43:18;;;;;;;47.43;27.30;;;8.60;95.80;;;9.80;54.99;94811.72;5058560;28;20491;-61
2023/12/10 09:45:45;;;;;;;39.17;23.10;;;9.40;94.80;;;10.54;52.41;94825.31;5063117;28;20454;-60
2023/12/10 09:48:12;;;;;;;37.40;24.67;;;10.10;92.20;;;11.07;51.16;94806.31;5059870;28;20498;-60
2023/12/10 09:50:41;;;;;;;38.53;24.97;;;10.70;91.20;;;11.36;50.73;94815.09;5061337;28;20447;-60
2023/12/10 09:53:09;;;;;;;38.60;24.97;;;11.10;89.80;;;11.65;49.04;94804.41;5058967;28;20475;-61
2023/12/10 09:55:38;;;;;;;38.53;23.23;;;11.40;86.80;;;11.97;49.29;94803.09;5059259;28;20452;-60
2023/12/10 09:58:05;;;;;;;37.00;22.40;;;11.60;85.60;;;12.34;49.05;94795.00;5060863;28;20613;-60
2023/12/10 10:00:32;;;;;;;27.27;20.80;;;12.10;84.10;;;12.86;47.31;94799.53;5058833;28;20458;-60
2023/12/10 10:03:02;;;;;;;26.60;19.20;;;12.50;82.40;;;13.28;46.99;94790.81;5057814;28;20464;-60
2023/12/10 10:05:30;;;;;;;29.20;18.80;;;12.80;80.90;;;13.47;44.87;94794.22;5054394;28;20967;-60
2023/12/10 10:07:57;;;;;;;31.90;19.17;;;13.10;76.30;;;13.67;45.48;94801.91;5059455;28;21053;-59
2023/12/10 10:10:25;;;;;;;25.50;17.87;;;13.30;77.10;;;13.97;43.60;94793.41;5060719;28;20454;-61
2023/12/10 10:12:55;;;;;;;27.23;17.73;;;13.60;73.60;;;14.30;43.26;94792.59;5054803;28;20524;-59
2023/12/10 10:15:28;;;;;;;33.27;20.73;;;14.00;71.90;;;14.68;41.55;94791.13;5058803;28;20526;-61
2023/12/10 10:17:55;;;;;;;27.33;18.87;;;14.30;69.10;;;15.16;43.04;94793.03;5061293;28;20560;-60
2023/12/10 10:20:24;;;;;;;27.80;18.73;;;14.60;71.90;;;15.68;42.17;94797.81;5059929;28;20455;-61